sensor_id;sensor_type;location;lat;lon;timestamp;P1;durP1;ratioP1;P2;durP2;ratioP2
59770;SDS011;45649;53.014;6.600;2022-08-21T00:01:14;4.83;;;2.40;;
59770;SDS011;45649;53.014;6.600;2022-08-21T00:03:43;5.67;;;2.50;;
59770;SDS011;45649;53.014;6.600;2022-08-21T00:06:09;8.13;;;2.70;;
59770;SDS011;45649;53.014;6.600;2022-08-21T00:08:35;4.47;;;2.80;;
59770;SDS011;45649;53.014;6.600;2022-08-21T00:11:01;6.13;;;2.73;;
59770;SDS011;45649;53.014;6.600;2022-08-21T00:13:30;3.77;;;2.50;;
59770;SDS011;45649;53.014;6.600;2022-08-21T00:15:56;6.03;;;2.87;;
59770;SDS011;45649;53.014;6.600;2022-08-21T00:18:22;5.90;;;3.10;;
59770;SDS011;45649;53.014;6.600;2022-08-21T00:20:47;7.00;;;2.77;;
59770;SDS011;45649;53.014;6.600;2022-08-21T00:23:14;7.63;;;2.60;;
59770;SDS011;45649;53.014;6.600;2022-08-21T00:25:40;6.47;;;2.90;;
59770;SDS011;45649;53.014;6.600;2022-08-21T00:28:08;6.30;;;3.50;;
59770;SDS011;45649;53.014;6.600;2022-08-21T00:30:34;7.00;;;3.47;;
59770;SDS011;45649;53.014;6.600;2022-08-21T00:33:00;7.43;;;3.70;;
59770;SDS011;45649;53.014;6.600;2022-08-21T00:35:28;6.60;;;4.13;;
59770;SDS011;45649;53.014;6.600;2022-08-21T00:37:57;5.93;;;3.27;;
59770;SDS011;45649;53.014;6.600;2022-08-21T00:40:25;4.03;;;2.90;;
59770;SDS011;45649;53.014;6.600;2022-08-21T00:42:53;4.47;;;3.10;;
59770;SDS011;45649;53.014;6.600;2022-08-21T00:45:20;4.43;;;2.90;;
59770;SDS011;45649;53.014;6.600;2022-08-21T00:47:47;4.80;;;2.93;;
59770;SDS011;45649;53.014;6.600;2022-08-21T00:50:13;7.07;;;3.07;;
59770;SDS011;45649;53.014;6.600;2022-08-21T00:52:39;5.10;;;2.97;;
59770;SDS011;45649;53.014;6.600;2022-08-21T00:55:07;8.27;;;2.97;;
59770;SDS011;45649;53.014;6.600;2022-08-21T00:57:40;6.13;;;3.40;;
59770;SDS011;45649;53.014;6.600;2022-08-21T01:00:13;5.70;;;3.10;;
59770;SDS011;45649;53.014;6.600;2022-08-21T01:02:41;4.70;;;3.40;;
59770;SDS011;45649;53.014;6.600;2022-08-21T01:05:08;5.80;;;2.87;;
59770;SDS011;45649;53.014;6.600;2022-08-21T01:07:35;6.20;;;3.20;;
59770;SDS011;45649;53.014;6.600;2022-08-21T01:10:03;8.73;;;3.43;;
59770;SDS011;45649;53.014;6.600;2022-08-21T01:12:30;4.93;;;3.10;;
59770;SDS011;45649;53.014;6.600;2022-08-21T01:14:57;5.10;;;3.00;;
59770;SDS011;45649;53.014;6.600;2022-08-21T01:17:24;5.07;;;3.13;;
59770;SDS011;45649;53.014;6.600;2022-08-21T01:19:51;4.63;;;2.70;;
59770;SDS011;45649;53.014;6.600;2022-08-21T01:22:17;3.40;;;3.10;;
59770;SDS011;45649;53.014;6.600;2022-08-21T01:24:44;4.90;;;3.17;;
59770;SDS011;45649;53.014;6.600;2022-08-21T01:27:10;4.53;;;3.30;;
59770;SDS011;45649;53.014;6.600;2022-08-21T01:29:38;5.87;;;2.90;;
59770;SDS011;45649;53.014;6.600;2022-08-21T01:32:09;4.73;;;3.17;;
59770;SDS011;45649;53.014;6.600;2022-08-21T01:34:43;3.30;;;3.00;;
59770;SDS011;45649;53.014;6.600;2022-08-21T01:37:11;4.70;;;2.97;;
59770;SDS011;45649;53.014;6.600;2022-08-21T01:39:37;4.00;;;3.00;;
59770;SDS011;45649;53.014;6.600;2022-08-21T01:42:04;4.17;;;3.40;;
59770;SDS011;45649;53.014;6.600;2022-08-21T01:44:30;3.70;;;2.93;;
59770;SDS011;45649;53.014;6.600;2022-08-21T01:46:57;4.20;;;3.23;;
59770;SDS011;45649;53.014;6.600;2022-08-21T01:49:25;3.80;;;3.50;;
59770;SDS011;45649;53.014;6.600;2022-08-21T01:51:51;4.67;;;3.20;;
59770;SDS011;45649;53.014;6.600;2022-08-21T01:54:17;4.47;;;3.20;;
59770;SDS011;45649;53.014;6.600;2022-08-21T01:56:44;4.27;;;3.43;;
59770;SDS011;45649;53.014;6.600;2022-08-21T01:59:11;6.33;;;3.77;;
59770;SDS011;45649;53.014;6.600;2022-08-21T02:04:13;4.73;;;3.40;;
59770;SDS011;45649;53.014;6.600;2022-08-21T02:06:39;3.60;;;3.30;;
59770;SDS011;45649;53.014;6.600;2022-08-21T02:09:05;4.87;;;3.80;;
59770;SDS011;45649;53.014;6.600;2022-08-21T02:11:32;4.23;;;3.83;;
59770;SDS011;45649;53.014;6.600;2022-08-21T02:13:59;4.90;;;3.50;;
59770;SDS011;45649;53.014;6.600;2022-08-21T02:16:25;5.10;;;3.57;;
59770;SDS011;45649;53.014;6.600;2022-08-21T02:18:50;4.30;;;3.80;;
59770;SDS011;45649;53.014;6.600;2022-08-21T02:21:16;4.43;;;3.63;;
59770;SDS011;45649;53.014;6.600;2022-08-21T02:23:42;6.40;;;4.20;;
59770;SDS011;45649;53.014;6.600;2022-08-21T02:26:08;4.10;;;3.73;;
59770;SDS011;45649;53.014;6.600;2022-08-21T02:28:34;5.40;;;4.00;;
59770;SDS011;45649;53.014;6.600;2022-08-21T02:31:01;4.63;;;4.10;;
59770;SDS011;45649;53.014;6.600;2022-08-21T02:33:28;5.23;;;4.30;;
59770;SDS011;45649;53.014;6.600;2022-08-21T02:35:54;5.53;;;4.40;;
59770;SDS011;45649;53.014;6.600;2022-08-21T02:38:24;5.60;;;4.60;;
59770;SDS011;45649;53.014;6.600;2022-08-21T02:40:52;5.60;;;4.50;;
59770;SDS011;45649;53.014;6.600;2022-08-21T02:43:19;6.45;;;5.30;;
59770;SDS011;45649;53.014;6.600;2022-08-21T02:45:46;5.30;;;4.80;;
59770;SDS011;45649;53.014;6.600;2022-08-21T02:48:14;6.47;;;5.20;;
59770;SDS011;45649;53.014;6.600;2022-08-21T02:50:51;10.13;;;5.20;;
59770;SDS011;45649;53.014;6.600;2022-08-21T02:53:19;6.60;;;5.23;;
59770;SDS011;45649;53.014;6.600;2022-08-21T02:55:45;6.57;;;5.40;;
59770;SDS011;45649;53.014;6.600;2022-08-21T02:58:14;6.60;;;5.20;;
59770;SDS011;45649;53.014;6.600;2022-08-21T03:00:41;9.23;;;5.30;;
59770;SDS011;45649;53.014;6.600;2022-08-21T03:03:08;6.97;;;5.40;;
59770;SDS011;45649;53.014;6.600;2022-08-21T03:05:35;6.60;;;5.03;;
59770;SDS011;45649;53.014;6.600;2022-08-21T03:08:05;6.57;;;5.20;;
59770;SDS011;45649;53.014;6.600;2022-08-21T03:10:36;8.40;;;5.10;;
59770;SDS011;45649;53.014;6.600;2022-08-21T03:13:04;8.13;;;5.30;;
59770;SDS011;45649;53.014;6.600;2022-08-21T03:15:31;10.07;;;5.60;;
59770;SDS011;45649;53.014;6.600;2022-08-21T03:17:57;8.17;;;5.73;;
59770;SDS011;45649;53.014;6.600;2022-08-21T03:20:23;7.20;;;5.40;;
59770;SDS011;45649;53.014;6.600;2022-08-21T03:22:51;6.23;;;5.63;;
59770;SDS011;45649;53.014;6.600;2022-08-21T03:25:19;7.60;;;5.73;;
59770;SDS011;45649;53.014;6.600;2022-08-21T03:27:45;8.17;;;5.80;;
59770;SDS011;45649;53.014;6.600;2022-08-21T03:30:13;7.97;;;5.47;;
59770;SDS011;45649;53.014;6.600;2022-08-21T03:32:40;10.37;;;5.57;;
59770;SDS011;45649;53.014;6.600;2022-08-21T03:35:06;7.17;;;5.73;;
59770;SDS011;45649;53.014;6.600;2022-08-21T03:37:32;8.10;;;5.70;;
59770;SDS011;45649;53.014;6.600;2022-08-21T03:39:58;8.43;;;5.83;;
59770;SDS011;45649;53.014;6.600;2022-08-21T03:42:24;8.33;;;5.80;;
59770;SDS011;45649;53.014;6.600;2022-08-21T03:44:50;7.18;;;6.13;;
59770;SDS011;45649;53.014;6.600;2022-08-21T03:47:15;7.37;;;5.70;;
59770;SDS011;45649;53.014;6.600;2022-08-21T03:49:41;5.90;;;5.00;;
59770;SDS011;45649;53.014;6.600;2022-08-21T03:52:07;6.63;;;5.40;;
59770;SDS011;45649;53.014;6.600;2022-08-21T03:54:33;7.27;;;5.33;;
59770;SDS011;45649;53.014;6.600;2022-08-21T03:56:59;6.40;;;5.30;;
59770;SDS011;45649;53.014;6.600;2022-08-21T03:59:24;6.13;;;5.57;;
59770;SDS011;45649;53.014;6.600;2022-08-21T04:01:54;9.23;;;5.30;;
59770;SDS011;45649;53.014;6.600;2022-08-21T04:04:21;8.53;;;5.47;;
59770;SDS011;45649;53.014;6.600;2022-08-21T04:06:47;7.50;;;5.57;;
59770;SDS011;45649;53.014;6.600;2022-08-21T04:09:14;9.77;;;5.70;;
59770;SDS011;45649;53.014;6.600;2022-08-21T04:11:39;9.00;;;5.67;;
59770;SDS011;45649;53.014;6.600;2022-08-21T04:14:05;6.47;;;5.60;;
59770;SDS011;45649;53.014;6.600;2022-08-21T04:16:31;6.17;;;5.57;;
59770;SDS011;45649;53.014;6.600;2022-08-21T04:18:57;10.07;;;5.70;;
59770;SDS011;45649;53.014;6.600;2022-08-21T04:21:22;7.93;;;5.93;;
59770;SDS011;45649;53.014;6.600;2022-08-21T04:23:48;6.60;;;5.73;;
59770;SDS011;45649;53.014;6.600;2022-08-21T04:26:14;8.03;;;5.60;;
59770;SDS011;45649;53.014;6.600;2022-08-21T04:28:40;7.13;;;5.93;;
59770;SDS011;45649;53.014;6.600;2022-08-21T04:31:07;7.73;;;5.80;;
59770;SDS011;45649;53.014;6.600;2022-08-21T04:33:33;6.30;;;5.70;;
59770;SDS011;45649;53.014;6.600;2022-08-21T04:35:59;7.20;;;5.67;;
59770;SDS011;45649;53.014;6.600;2022-08-21T04:38:25;8.23;;;5.70;;
59770;SDS011;45649;53.014;6.600;2022-08-21T04:40:51;8.97;;;6.33;;
59770;SDS011;45649;53.014;6.600;2022-08-21T04:43:17;6.83;;;5.63;;
59770;SDS011;45649;53.014;6.600;2022-08-21T04:45:46;9.40;;;6.00;;
59770;SDS011;45649;53.014;6.600;2022-08-21T04:48:14;7.83;;;6.10;;
59770;SDS011;45649;53.014;6.600;2022-08-21T04:53:35;8.13;;;6.03;;
59770;SDS011;45649;53.014;6.600;2022-08-21T04:56:10;8.07;;;6.10;;
59770;SDS011;45649;53.014;6.600;2022-08-21T04:58:39;7.33;;;6.13;;
59770;SDS011;45649;53.014;6.600;2022-08-21T05:01:07;8.40;;;5.70;;
59770;SDS011;45649;53.014;6.600;2022-08-21T05:03:38;9.13;;;5.70;;
59770;SDS011;45649;53.014;6.600;2022-08-21T05:06:07;8.63;;;5.83;;
59770;SDS011;45649;53.014;6.600;2022-08-21T05:08:35;8.70;;;5.60;;
59770;SDS011;45649;53.014;6.600;2022-08-21T05:11:03;7.10;;;5.93;;
59770;SDS011;45649;53.014;6.600;2022-08-21T05:13:29;7.00;;;5.83;;
59770;SDS011;45649;53.014;6.600;2022-08-21T05:15:56;8.87;;;5.80;;
59770;SDS011;45649;53.014;6.600;2022-08-21T05:18:21;9.57;;;5.90;;
59770;SDS011;45649;53.014;6.600;2022-08-21T05:20:47;8.30;;;5.70;;
59770;SDS011;45649;53.014;6.600;2022-08-21T05:23:13;8.60;;;5.50;;
59770;SDS011;45649;53.014;6.600;2022-08-21T05:25:40;7.97;;;5.60;;
59770;SDS011;45649;53.014;6.600;2022-08-21T05:28:08;6.00;;;5.43;;
59770;SDS011;45649;53.014;6.600;2022-08-21T05:30:35;6.53;;;5.50;;
59770;SDS011;45649;53.014;6.600;2022-08-21T05:33:03;9.07;;;5.97;;
59770;SDS011;45649;53.014;6.600;2022-08-21T05:35:30;7.90;;;5.43;;
59770;SDS011;45649;53.014;6.600;2022-08-21T05:37:57;6.77;;;4.93;;
59770;SDS011;45649;53.014;6.600;2022-08-21T05:40:23;7.90;;;5.03;;
59770;SDS011;45649;53.014;6.600;2022-08-21T05:42:49;5.50;;;4.73;;
59770;SDS011;45649;53.014;6.600;2022-08-21T05:45:16;6.13;;;4.83;;
59770;SDS011;45649;53.014;6.600;2022-08-21T05:47:42;6.93;;;5.20;;
59770;SDS011;45649;53.014;6.600;2022-08-21T05:50:08;6.27;;;4.80;;
59770;SDS011;45649;53.014;6.600;2022-08-21T05:52:34;6.80;;;4.70;;
59770;SDS011;45649;53.014;6.600;2022-08-21T05:55:00;5.13;;;4.30;;
59770;SDS011;45649;53.014;6.600;2022-08-21T05:57:25;7.60;;;5.10;;
59770;SDS011;45649;53.014;6.600;2022-08-21T05:59:51;6.67;;;4.70;;
59770;SDS011;45649;53.014;6.600;2022-08-21T06:02:17;6.03;;;4.83;;
59770;SDS011;45649;53.014;6.600;2022-08-21T06:04:44;4.97;;;4.10;;
59770;SDS011;45649;53.014;6.600;2022-08-21T06:07:09;4.83;;;4.30;;
59770;SDS011;45649;53.014;6.600;2022-08-21T06:09:36;7.53;;;4.43;;
59770;SDS011;45649;53.014;6.600;2022-08-21T06:12:10;6.93;;;4.50;;
59770;SDS011;45649;53.014;6.600;2022-08-21T06:14:38;6.67;;;4.40;;
59770;SDS011;45649;53.014;6.600;2022-08-21T06:17:06;6.97;;;4.50;;
59770;SDS011;45649;53.014;6.600;2022-08-21T06:19:34;5.30;;;4.00;;
59770;SDS011;45649;53.014;6.600;2022-08-21T06:22:01;5.17;;;3.90;;
59770;SDS011;45649;53.014;6.600;2022-08-21T06:24:28;4.70;;;3.70;;
59770;SDS011;45649;53.014;6.600;2022-08-21T06:26:54;7.83;;;4.00;;
59770;SDS011;45649;53.014;6.600;2022-08-21T06:29:20;7.80;;;4.40;;
59770;SDS011;45649;53.014;6.600;2022-08-21T06:31:47;5.87;;;4.03;;
59770;SDS011;45649;53.014;6.600;2022-08-21T06:34:13;4.10;;;3.70;;
59770;SDS011;45649;53.014;6.600;2022-08-21T06:36:40;6.20;;;4.00;;
59770;SDS011;45649;53.014;6.600;2022-08-21T06:39:06;7.90;;;4.07;;
59770;SDS011;45649;53.014;6.600;2022-08-21T06:41:32;6.33;;;3.73;;
59770;SDS011;45649;53.014;6.600;2022-08-21T06:43:58;10.80;;;3.50;;
59770;SDS011;45649;53.014;6.600;2022-08-21T06:46:25;5.83;;;3.87;;
59770;SDS011;45649;53.014;6.600;2022-08-21T06:48:53;7.97;;;4.03;;
59770;SDS011;45649;53.014;6.600;2022-08-21T06:51:19;5.70;;;4.13;;
59770;SDS011;45649;53.014;6.600;2022-08-21T06:53:45;6.93;;;3.47;;
59770;SDS011;45649;53.014;6.600;2022-08-21T06:56:11;6.20;;;3.67;;
59770;SDS011;45649;53.014;6.600;2022-08-21T06:58:37;8.37;;;3.90;;
59770;SDS011;45649;53.014;6.600;2022-08-21T07:01:03;7.47;;;3.57;;
59770;SDS011;45649;53.014;6.600;2022-08-21T07:03:33;7.63;;;3.83;;
59770;SDS011;45649;53.014;6.600;2022-08-21T07:06:09;7.93;;;3.70;;
59770;SDS011;45649;53.014;6.600;2022-08-21T07:08:36;6.07;;;3.50;;
59770;SDS011;45649;53.014;6.600;2022-08-21T07:11:03;7.57;;;3.27;;
59770;SDS011;45649;53.014;6.600;2022-08-21T07:13:32;8.13;;;3.30;;
59770;SDS011;45649;53.014;6.600;2022-08-21T07:15:57;5.33;;;2.80;;
59770;SDS011;45649;53.014;6.600;2022-08-21T07:18:23;8.90;;;3.20;;
59770;SDS011;45649;53.014;6.600;2022-08-21T07:20:50;5.20;;;2.73;;
59770;SDS011;45649;53.014;6.600;2022-08-21T07:25:51;6.37;;;2.70;;
59770;SDS011;45649;53.014;6.600;2022-08-21T07:28:17;7.60;;;2.53;;
59770;SDS011;45649;53.014;6.600;2022-08-21T07:30:43;6.63;;;2.53;;
59770;SDS011;45649;53.014;6.600;2022-08-21T07:33:09;7.87;;;2.97;;
59770;SDS011;45649;53.014;6.600;2022-08-21T07:35:35;6.97;;;2.80;;
59770;SDS011;45649;53.014;6.600;2022-08-21T07:38:01;5.90;;;2.70;;
59770;SDS011;45649;53.014;6.600;2022-08-21T07:40:26;5.73;;;2.60;;
59770;SDS011;45649;53.014;6.600;2022-08-21T07:42:52;5.13;;;2.50;;
59770;SDS011;45649;53.014;6.600;2022-08-21T07:45:21;6.87;;;2.70;;
59770;SDS011;45649;53.014;6.600;2022-08-21T07:47:49;8.53;;;2.53;;
59770;SDS011;45649;53.014;6.600;2022-08-21T07:50:15;6.13;;;2.50;;
59770;SDS011;45649;53.014;6.600;2022-08-21T07:52:42;6.37;;;2.67;;
59770;SDS011;45649;53.014;6.600;2022-08-21T07:55:09;6.70;;;2.63;;
59770;SDS011;45649;53.014;6.600;2022-08-21T07:57:37;5.50;;;2.30;;
59770;SDS011;45649;53.014;6.600;2022-08-21T08:00:04;5.67;;;2.50;;
59770;SDS011;45649;53.014;6.600;2022-08-21T08:02:32;5.50;;;2.30;;
59770;SDS011;45649;53.014;6.600;2022-08-21T08:04:58;7.70;;;2.57;;
59770;SDS011;45649;53.014;6.600;2022-08-21T08:07:25;6.40;;;2.63;;
59770;SDS011;45649;53.014;6.600;2022-08-21T08:09:51;5.20;;;2.30;;
59770;SDS011;45649;53.014;6.600;2022-08-21T08:12:17;7.93;;;2.90;;
59770;SDS011;45649;53.014;6.600;2022-08-21T08:14:43;6.27;;;2.67;;
59770;SDS011;45649;53.014;6.600;2022-08-21T08:17:09;7.53;;;2.77;;
59770;SDS011;45649;53.014;6.600;2022-08-21T08:19:35;5.97;;;3.03;;
59770;SDS011;45649;53.014;6.600;2022-08-21T08:22:01;8.45;;;3.25;;
59770;SDS011;45649;53.014;6.600;2022-08-21T08:24:26;8.20;;;3.07;;
59770;SDS011;45649;53.014;6.600;2022-08-21T08:26:52;5.77;;;2.77;;
59770;SDS011;45649;53.014;6.600;2022-08-21T08:29:19;7.17;;;2.37;;
59770;SDS011;45649;53.014;6.600;2022-08-21T08:31:46;7.63;;;2.67;;
59770;SDS011;45649;53.014;6.600;2022-08-21T08:34:12;9.13;;;2.70;;
59770;SDS011;45649;53.014;6.600;2022-08-21T08:36:37;6.70;;;2.50;;
59770;SDS011;45649;53.014;6.600;2022-08-21T08:39:03;5.27;;;2.40;;
59770;SDS011;45649;53.014;6.600;2022-08-21T08:41:30;6.13;;;2.40;;
59770;SDS011;45649;53.014;6.600;2022-08-21T08:44:04;6.57;;;2.50;;
59770;SDS011;45649;53.014;6.600;2022-08-21T08:46:36;4.20;;;2.10;;
59770;SDS011;45649;53.014;6.600;2022-08-21T08:54:47;6.73;;;2.00;;
59770;SDS011;45649;53.014;6.600;2022-08-21T08:57:21;5.20;;;2.10;;
59770;SDS011;45649;53.014;6.600;2022-08-21T08:59:53;5.53;;;1.70;;
59770;SDS011;45649;53.014;6.600;2022-08-21T09:02:22;4.43;;;1.50;;
59770;SDS011;45649;53.014;6.600;2022-08-21T09:04:49;3.53;;;1.83;;
59770;SDS011;45649;53.014;6.600;2022-08-21T09:09:51;4.37;;;1.93;;
59770;SDS011;45649;53.014;6.600;2022-08-21T09:12:45;4.63;;;1.53;;
59770;SDS011;45649;53.014;6.600;2022-08-21T09:26:16;3.20;;;1.60;;
59770;SDS011;45649;53.014;6.600;2022-08-21T09:28:44;4.27;;;1.60;;
59770;SDS011;45649;53.014;6.600;2022-08-21T09:31:16;4.43;;;1.73;;
59770;SDS011;45649;53.014;6.600;2022-08-21T09:33:48;5.20;;;1.40;;
59770;SDS011;45649;53.014;6.600;2022-08-21T09:36:25;8.47;;;1.80;;
59770;SDS011;45649;53.014;6.600;2022-08-21T09:38:59;7.10;;;1.90;;
59770;SDS011;45649;53.014;6.600;2022-08-21T09:41:29;8.20;;;2.13;;
59770;SDS011;45649;53.014;6.600;2022-08-21T09:43:57;4.10;;;1.67;;
59770;SDS011;45649;53.014;6.600;2022-08-21T09:46:24;3.80;;;1.87;;
59770;SDS011;45649;53.014;6.600;2022-08-21T09:48:52;6.83;;;1.90;;
59770;SDS011;45649;53.014;6.600;2022-08-21T09:51:24;8.13;;;1.87;;
59770;SDS011;45649;53.014;6.600;2022-08-21T09:53:53;4.43;;;1.50;;
59770;SDS011;45649;53.014;6.600;2022-08-21T09:56:39;5.27;;;1.77;;
59770;SDS011;45649;53.014;6.600;2022-08-21T09:59:35;3.73;;;1.70;;
59770;SDS011;45649;53.014;6.600;2022-08-21T10:07:32;6.53;;;1.90;;
59770;SDS011;45649;53.014;6.600;2022-08-21T10:10:19;4.83;;;1.90;;
59770;SDS011;45649;53.014;6.600;2022-08-21T10:12:55;4.27;;;1.50;;
59770;SDS011;45649;53.014;6.600;2022-08-21T10:18:19;6.17;;;1.97;;
59770;SDS011;45649;53.014;6.600;2022-08-21T10:20:57;4.97;;;1.93;;
59770;SDS011;45649;53.014;6.600;2022-08-21T10:23:46;6.50;;;1.90;;
59770;SDS011;45649;53.014;6.600;2022-08-21T10:47:53;4.67;;;1.80;;
59770;SDS011;45649;53.014;6.600;2022-08-21T11:02:00;3.50;;;1.50;;
59770;SDS011;45649;53.014;6.600;2022-08-21T11:04:42;6.37;;;1.60;;
59770;SDS011;45649;53.014;6.600;2022-08-21T11:09:50;2.80;;;1.40;;
59770;SDS011;45649;53.014;6.600;2022-08-21T11:12:31;6.20;;;1.53;;
59770;SDS011;45649;53.014;6.600;2022-08-21T11:18:29;3.47;;;1.60;;
59770;SDS011;45649;53.014;6.600;2022-08-21T11:23:45;2.67;;;1.40;;
59770;SDS011;45649;53.014;6.600;2022-08-21T11:26:31;5.10;;;1.83;;
59770;SDS011;45649;53.014;6.600;2022-08-21T11:31:58;4.37;;;1.50;;
59770;SDS011;45649;53.014;6.600;2022-08-21T11:42:42;3.57;;;1.63;;
59770;SDS011;45649;53.014;6.600;2022-08-21T11:45:32;4.77;;;1.67;;
59770;SDS011;45649;53.014;6.600;2022-08-21T11:48:28;4.53;;;1.73;;
59770;SDS011;45649;53.014;6.600;2022-08-21T11:51:13;3.77;;;1.70;;
59770;SDS011;45649;53.014;6.600;2022-08-21T11:56:45;2.37;;;1.37;;
59770;SDS011;45649;53.014;6.600;2022-08-21T11:59:20;4.63;;;1.73;;
59770;SDS011;45649;53.014;6.600;2022-08-21T12:01:51;4.10;;;2.10;;
59770;SDS011;45649;53.014;6.600;2022-08-21T12:04:29;3.77;;;1.80;;
59770;SDS011;45649;53.014;6.600;2022-08-21T12:07:09;4.10;;;1.80;;
59770;SDS011;45649;53.014;6.600;2022-08-21T12:09:40;5.77;;;1.83;;
59770;SDS011;45649;53.014;6.600;2022-08-21T12:15:14;4.37;;;1.83;;
59770;SDS011;45649;53.014;6.600;2022-08-21T12:17:41;4.37;;;1.77;;
59770;SDS011;45649;53.014;6.600;2022-08-21T12:20:38;3.47;;;1.80;;
59770;SDS011;45649;53.014;6.600;2022-08-21T12:25:41;4.40;;;1.83;;
59770;SDS011;45649;53.014;6.600;2022-08-21T12:28:27;4.40;;;1.83;;
59770;SDS011;45649;53.014;6.600;2022-08-21T12:30:56;4.43;;;1.97;;
59770;SDS011;45649;53.014;6.600;2022-08-21T12:33:24;5.03;;;1.70;;
59770;SDS011;45649;53.014;6.600;2022-08-21T12:36:01;4.73;;;1.97;;
59770;SDS011;45649;53.014;6.600;2022-08-21T12:38:28;5.70;;;2.03;;
59770;SDS011;45649;53.014;6.600;2022-08-21T12:41:12;4.90;;;2.03;;
59770;SDS011;45649;53.014;6.600;2022-08-21T12:43:49;4.00;;;1.60;;
59770;SDS011;45649;53.014;6.600;2022-08-21T12:46:20;4.73;;;1.90;;
59770;SDS011;45649;53.014;6.600;2022-08-21T12:54:48;5.87;;;1.80;;
59770;SDS011;45649;53.014;6.600;2022-08-21T12:57:18;5.50;;;2.30;;
59770;SDS011;45649;53.014;6.600;2022-08-21T12:59:49;3.80;;;1.90;;
59770;SDS011;45649;53.014;6.600;2022-08-21T13:02:19;4.23;;;1.93;;
59770;SDS011;45649;53.014;6.600;2022-08-21T13:04:48;3.97;;;1.73;;
59770;SDS011;45649;53.014;6.600;2022-08-21T13:07:15;3.83;;;1.83;;
59770;SDS011;45649;53.014;6.600;2022-08-21T13:09:47;5.43;;;2.07;;
59770;SDS011;45649;53.014;6.600;2022-08-21T13:12:17;4.53;;;2.20;;
59770;SDS011;45649;53.014;6.600;2022-08-21T13:14:46;7.00;;;2.23;;
59770;SDS011;45649;53.014;6.600;2022-08-21T13:17:16;4.93;;;2.03;;
59770;SDS011;45649;53.014;6.600;2022-08-21T13:19:54;4.97;;;2.10;;
59770;SDS011;45649;53.014;6.600;2022-08-21T13:22:22;2.90;;;1.80;;
59770;SDS011;45649;53.014;6.600;2022-08-21T13:24:49;6.50;;;2.30;;
59770;SDS011;45649;53.014;6.600;2022-08-21T13:27:18;6.10;;;2.47;;
59770;SDS011;45649;53.014;6.600;2022-08-21T13:32:41;4.17;;;2.00;;
59770;SDS011;45649;53.014;6.600;2022-08-21T13:35:11;3.90;;;2.00;;
59770;SDS011;45649;53.014;6.600;2022-08-21T13:37:43;5.00;;;1.67;;
59770;SDS011;45649;53.014;6.600;2022-08-21T13:40:12;3.00;;;1.90;;
59770;SDS011;45649;53.014;6.600;2022-08-21T13:42:42;6.73;;;1.90;;
59770;SDS011;45649;53.014;6.600;2022-08-21T13:45:14;3.63;;;1.70;;
59770;SDS011;45649;53.014;6.600;2022-08-21T13:47:42;5.03;;;1.80;;
59770;SDS011;45649;53.014;6.600;2022-08-21T13:50:11;5.57;;;1.90;;
59770;SDS011;45649;53.014;6.600;2022-08-21T13:52:47;3.77;;;1.60;;
59770;SDS011;45649;53.014;6.600;2022-08-21T13:55:25;3.63;;;1.77;;
59770;SDS011;45649;53.014;6.600;2022-08-21T13:58:01;3.97;;;1.90;;
59770;SDS011;45649;53.014;6.600;2022-08-21T14:00:29;6.13;;;2.13;;
59770;SDS011;45649;53.014;6.600;2022-08-21T14:03:06;3.07;;;1.70;;
59770;SDS011;45649;53.014;6.600;2022-08-21T14:05:36;4.30;;;2.00;;
59770;SDS011;45649;53.014;6.600;2022-08-21T14:08:10;3.97;;;1.87;;
59770;SDS011;45649;53.014;6.600;2022-08-21T14:10:47;3.47;;;1.57;;
59770;SDS011;45649;53.014;6.600;2022-08-21T14:16:10;3.10;;;1.33;;
59770;SDS011;45649;53.014;6.600;2022-08-21T14:18:46;4.53;;;1.90;;
59770;SDS011;45649;53.014;6.600;2022-08-21T14:21:13;3.07;;;1.67;;
59770;SDS011;45649;53.014;6.600;2022-08-21T14:23:58;4.23;;;1.77;;
59770;SDS011;45649;53.014;6.600;2022-08-21T14:26:36;3.97;;;1.73;;
59770;SDS011;45649;53.014;6.600;2022-08-21T14:29:12;3.80;;;1.57;;
59770;SDS011;45649;53.014;6.600;2022-08-21T14:31:40;2.47;;;1.47;;
59770;SDS011;45649;53.014;6.600;2022-08-21T14:34:08;3.30;;;1.50;;
59770;SDS011;45649;53.014;6.600;2022-08-21T14:36:36;4.37;;;1.63;;
59770;SDS011;45649;53.014;6.600;2022-08-21T14:39:02;5.17;;;1.80;;
59770;SDS011;45649;53.014;6.600;2022-08-21T14:41:28;3.20;;;1.50;;
59770;SDS011;45649;53.014;6.600;2022-08-21T14:43:54;4.70;;;1.70;;
59770;SDS011;45649;53.014;6.600;2022-08-21T14:46:23;2.95;;;1.50;;
59770;SDS011;45649;53.014;6.600;2022-08-21T14:48:50;4.10;;;1.47;;
59770;SDS011;45649;53.014;6.600;2022-08-21T14:51:16;4.03;;;1.70;;
59770;SDS011;45649;53.014;6.600;2022-08-21T14:53:42;3.33;;;1.60;;
59770;SDS011;45649;53.014;6.600;2022-08-21T14:56:08;2.97;;;1.50;;
59770;SDS011;45649;53.014;6.600;2022-08-21T14:58:36;2.60;;;1.47;;
59770;SDS011;45649;53.014;6.600;2022-08-21T15:01:09;3.80;;;1.60;;
59770;SDS011;45649;53.014;6.600;2022-08-21T15:03:36;4.17;;;1.53;;
59770;SDS011;45649;53.014;6.600;2022-08-21T15:06:03;2.53;;;1.40;;
59770;SDS011;45649;53.014;6.600;2022-08-21T15:08:31;5.47;;;1.50;;
59770;SDS011;45649;53.014;6.600;2022-08-21T15:10:57;1.77;;;1.33;;
59770;SDS011;45649;53.014;6.600;2022-08-21T15:13:24;3.80;;;1.50;;
59770;SDS011;45649;53.014;6.600;2022-08-21T15:15:50;5.03;;;1.80;;
59770;SDS011;45649;53.014;6.600;2022-08-21T15:18:21;4.33;;;1.90;;
59770;SDS011;45649;53.014;6.600;2022-08-21T15:20:51;2.80;;;1.87;;
59770;SDS011;45649;53.014;6.600;2022-08-21T15:23:17;2.53;;;1.77;;
59770;SDS011;45649;53.014;6.600;2022-08-21T15:25:44;5.03;;;2.10;;
59770;SDS011;45649;53.014;6.600;2022-08-21T15:28:11;4.57;;;1.70;;
59770;SDS011;45649;53.014;6.600;2022-08-21T15:30:39;6.77;;;2.17;;
59770;SDS011;45649;53.014;6.600;2022-08-21T15:33:06;3.73;;;1.80;;
59770;SDS011;45649;53.014;6.600;2022-08-21T15:35:32;4.67;;;1.77;;
59770;SDS011;45649;53.014;6.600;2022-08-21T15:37:58;4.83;;;1.80;;
59770;SDS011;45649;53.014;6.600;2022-08-21T15:40:23;3.80;;;1.50;;
59770;SDS011;45649;53.014;6.600;2022-08-21T15:42:50;2.80;;;1.63;;
59770;SDS011;45649;53.014;6.600;2022-08-21T15:45:19;3.37;;;1.60;;
59770;SDS011;45649;53.014;6.600;2022-08-21T15:47:45;2.30;;;1.33;;
59770;SDS011;45649;53.014;6.600;2022-08-21T15:50:12;2.70;;;1.50;;
59770;SDS011;45649;53.014;6.600;2022-08-21T15:52:38;4.37;;;1.70;;
59770;SDS011;45649;53.014;6.600;2022-08-21T15:55:05;5.03;;;1.80;;
59770;SDS011;45649;53.014;6.600;2022-08-21T15:57:32;4.40;;;1.33;;
59770;SDS011;45649;53.014;6.600;2022-08-21T16:00:00;4.00;;;1.63;;
59770;SDS011;45649;53.014;6.600;2022-08-21T16:02:37;6.53;;;1.53;;
59770;SDS011;45649;53.014;6.600;2022-08-21T16:05:04;4.60;;;1.37;;
59770;SDS011;45649;53.014;6.600;2022-08-21T16:07:30;4.30;;;1.70;;
59770;SDS011;45649;53.014;6.600;2022-08-21T16:09:55;4.33;;;1.77;;
59770;SDS011;45649;53.014;6.600;2022-08-21T16:12:28;3.67;;;1.73;;
59770;SDS011;45649;53.014;6.600;2022-08-21T16:14:58;3.28;;;1.70;;
59770;SDS011;45649;53.014;6.600;2022-08-21T16:17:28;4.37;;;1.60;;
59770;SDS011;45649;53.014;6.600;2022-08-21T16:19:56;3.27;;;1.60;;
59770;SDS011;45649;53.014;6.600;2022-08-21T16:22:22;3.47;;;1.40;;
59770;SDS011;45649;53.014;6.600;2022-08-21T16:24:48;4.00;;;1.70;;
59770;SDS011;45649;53.014;6.600;2022-08-21T16:27:14;2.90;;;1.60;;
59770;SDS011;45649;53.014;6.600;2022-08-21T16:29:42;2.47;;;1.40;;
59770;SDS011;45649;53.014;6.600;2022-08-21T16:32:08;2.90;;;1.40;;
59770;SDS011;45649;53.014;6.600;2022-08-21T16:34:34;3.33;;;1.73;;
59770;SDS011;45649;53.014;6.600;2022-08-21T16:37:01;2.70;;;1.30;;
59770;SDS011;45649;53.014;6.600;2022-08-21T16:39:26;2.37;;;1.40;;
59770;SDS011;45649;53.014;6.600;2022-08-21T16:41:52;4.97;;;1.73;;
59770;SDS011;45649;53.014;6.600;2022-08-21T16:44:18;3.73;;;1.50;;
59770;SDS011;45649;53.014;6.600;2022-08-21T16:46:47;5.23;;;1.57;;